Monte Alegre de Goias, Brazil
Current Conditions -  °F | °C
As of 1:00 AM on Monday 20 Oct 2014 (Local Time) from SBBR Reporting Station
Few Clouds Few Clouds  
Wind Chill: 75°   Ceiling: Unl
Heat Index: 75°   Visibility: 6mi
Dew Point: 57°   Wind: 6mph
Humidity: 53%   Direction: 270°W
Pressure: 30"   Gusts: NA
Location:  13.26°S, 46.9°W
Report Text: SBBR 200400Z 27005KT 9999 FEW040 FEW045TCU 24/14 Q1016
Loading
Personal Weather Stations






























Interactive Weather Map
Tropical Storm Tracking
New forecast layout! Learn more

10-Day Weather Forecast

Advertisements
Track Severe Weather on mobile